Time;durP1;ratioP1;P1;durP2;ratioP2;P2;SDS_P1;SDS_P2;PMS_P1;PMS_P2;Temp;Humidity;BMP_temperature;BMP_pressure;BME280_temperature;BME280_humidity;BME280_pressure;Samples;Min_cycle;Max_cycle;Signal;HPM_P1;HPM_P2
2021/09/18 00:01:54;;;;;;;1.38;0.50;;;;;;;13.38;100.00;100673.88;6463423;22;20033;-79
2021/09/18 00:04:24;;;;;;;2.42;0.50;;;;;;;13.52;100.00;100666.22;6463917;22;20058;-79
2021/09/18 00:06:55;;;;;;;1.95;0.55;;;;;;;13.34;100.00;100664.41;6464128;22;20077;-79
2021/09/18 00:09:25;;;;;;;1.10;0.50;;;;;;;13.24;100.00;100676.28;6371419;23;20005;-79
2021/09/18 00:11:55;;;;;;;1.58;0.40;;;;;;;13.09;100.00;100676.94;6464924;22;20016;-79
2021/09/18 00:14:25;;;;;;;1.23;0.40;;;;;;;13.08;100.00;100685.75;6371173;23;20016;-79
2021/09/18 00:16:56;;;;;;;1.30;0.40;;;;;;;13.11;100.00;100686.47;6372115;23;20006;-79
2021/09/18 00:19:26;;;;;;;0.90;0.50;;;;;;;13.16;100.00;100679.25;6463046;22;20009;-79
2021/09/18 00:21:56;;;;;;;1.13;0.40;;;;;;;12.97;100.00;100687.97;6463820;22;20357;-79
2021/09/18 00:24:27;;;;;;;1.20;0.50;;;;;;;12.81;100.00;100670.31;6462635;22;20089;-78
2021/09/18 00:26:57;;;;;;;0.68;0.50;;;;;;;12.87;100.00;100678.78;6371762;23;20005;-79
2021/09/18 00:29:27;;;;;;;2.22;0.40;;;;;;;13.09;100.00;100682.19;6463551;22;20407;-79
2021/09/18 00:31:58;;;;;;;1.20;0.50;;;;;;;12.96;100.00;100675.78;6364966;23;20486;-79
2021/09/18 00:34:28;;;;;;;1.02;0.63;;;;;;;12.88;100.00;100683.09;6463266;22;20001;-79
2021/09/18 00:36:58;;;;;;;1.00;0.60;;;;;;;12.87;100.00;100678.78;6463045;22;20090;-77
2021/09/18 00:39:29;;;;;;;0.60;0.40;;;;;;;12.80;100.00;100684.34;6370999;23;20031;-79
2021/09/18 00:41:59;;;;;;;2.50;0.55;;;;;;;12.82;100.00;100688.59;6464036;22;20012;-79
2021/09/18 00:44:30;;;;;;;2.40;0.63;;;;;;;12.82;100.00;100685.97;6370094;23;20005;-79
2021/09/18 00:47:00;;;;;;;1.90;0.43;;;;;;;12.88;100.00;100684.88;6371929;23;20001;-79
2021/09/18 00:49:31;;;;;;;1.17;0.50;;;;;;;12.79;100.00;100678.25;6462759;22;20005;-79
2021/09/18 00:52:01;;;;;;;1.38;0.50;;;;;;;12.75;100.00;100676.69;6371284;23;20361;-79
2021/09/18 00:54:31;;;;;;;1.63;0.50;;;;;;;12.74;100.00;100674.09;6463453;22;20013;-79
2021/09/18 00:57:02;;;;;;;1.52;0.50;;;;;;;12.68;100.00;100679.63;6371573;23;20076;-79
2021/09/18 00:59:34;;;;;;;0.60;0.40;;;;;;;12.71;100.00;100689.97;6373586;23;20381;-79
2021/09/18 01:02:04;;;;;;;2.25;0.70;;;;;;;12.69;100.00;100681.31;6372698;23;20027;-79
2021/09/18 01:04:36;;;;;;;1.15;0.52;;;;;;;12.63;100.00;100677.19;6372828;23;20029;-79
2021/09/18 01:07:06;;;;;;;1.48;0.50;;;;;;;12.59;100.00;100680.00;6466086;22;20001;-79
2021/09/18 01:09:37;;;;;;;1.05;0.50;;;;;;;12.55;100.00;100679.28;6372616;23;20006;-79
2021/09/18 01:12:09;;;;;;;1.15;0.43;;;;;;;12.51;100.00;100685.59;6372504;23;20056;-79
2021/09/18 01:14:58;;;;;;;2.35;0.50;;;;;;;12.54;100.00;100676.72;6465648;22;20009;-79
2021/09/18 01:17:28;;;;;;;0.73;0.50;;;;;;;12.53;100.00;100681.13;6373088;23;20055;-79
2021/09/18 01:19:58;;;;;;;1.42;0.70;;;;;;;12.38;100.00;100684.38;6464532;22;20009;-79
2021/09/18 01:22:28;;;;;;;1.48;0.70;;;;;;;12.23;100.00;100695.47;6465712;22;20088;-79
2021/09/18 01:24:59;;;;;;;1.27;0.57;;;;;;;12.29;100.00;100691.78;6463685;22;20006;-79
2021/09/18 01:27:29;;;;;;;2.42;0.70;;;;;;;12.43;100.00;100698.16;6465224;22;20189;-79
2021/09/18 01:29:59;;;;;;;2.13;0.70;;;;;;;12.52;100.00;100694.28;6465447;22;20200;-79
2021/09/18 01:32:30;;;;;;;2.15;0.70;;;;;;;12.44;100.00;100699.84;6372746;23;20006;-79
2021/09/18 01:35:00;;;;;;;1.33;0.60;;;;;;;12.41;100.00;100701.72;6464887;22;20055;-79
2021/09/18 01:37:30;;;;;;;1.42;0.50;;;;;;;12.47;100.00;100704.13;6464867;22;20001;-79
2021/09/18 01:40:00;;;;;;;3.42;0.60;;;;;;;12.35;100.00;100702.88;6372073;23;20004;-79
2021/09/18 01:42:31;;;;;;;1.13;0.55;;;;;;;12.30;100.00;100702.16;6372278;23;20022;-79
2021/09/18 01:45:01;;;;;;;1.80;0.90;;;;;;;12.24;100.00;100704.19;6463418;22;20010;-79
2021/09/18 01:48:03;;;;;;;2.53;0.60;;;;;;;12.23;100.00;100705.97;6465029;22;20002;-79
2021/09/18 01:50:41;;;;;;;1.60;0.70;;;;;;;12.39;100.00;100704.44;6440593;22;20016;-79
2021/09/18 01:53:14;;;;;;;2.67;0.57;;;;;;;12.26;100.00;100695.34;6372744;23;19997;-79
2021/09/18 01:55:45;;;;;;;2.33;0.60;;;;;;;12.40;100.00;100693.03;6371836;23;20330;-79
2021/09/18 01:58:16;;;;;;;0.93;0.47;;;;;;;12.44;100.00;100697.22;6373692;23;20489;-79
2021/09/18 02:00:54;;;;;;;3.72;0.68;;;;;;;12.32;100.00;100697.72;6372456;23;20033;-79
2021/09/18 02:03:24;;;;;;;2.97;0.70;;;;;;;12.37;100.00;100694.91;6373370;23;19998;-79
2021/09/18 02:05:54;;;;;;;1.55;0.75;;;;;;;12.44;100.00;100693.78;6371774;23;20010;-79
2021/09/18 02:08:25;;;;;;;0.90;0.60;;;;;;;12.42;100.00;100692.94;6371857;23;20012;-79
2021/09/18 02:10:57;;;;;;;1.02;0.68;;;;;;;12.36;100.00;100695.84;6464593;22;20344;-79
2021/09/18 02:13:28;;;;;;;1.70;0.77;;;;;;;12.33;100.00;100693.34;6465419;22;20468;-79
2021/09/18 02:15:58;;;;;;;2.92;0.82;;;;;;;12.29;100.00;100691.78;6465613;22;20013;-79
2021/09/18 02:18:28;;;;;;;4.35;0.80;;;;;;;12.48;100.00;100680.44;6373441;23;20009;-79
2021/09/18 02:20:59;;;;;;;1.63;0.70;;;;;;;12.72;100.00;100686.44;6373059;23;19993;-79
2021/09/18 02:23:29;;;;;;;1.00;0.68;;;;;;;12.67;100.00;100678.75;6464854;22;20001;-79
2021/09/18 02:26:00;;;;;;;2.53;0.90;;;;;;;12.59;100.00;100675.63;6465352;22;19998;-79
2021/09/18 02:28:30;;;;;;;2.35;0.80;;;;;;;12.55;100.00;100678.44;6373924;23;20009;-79
2021/09/18 02:31:00;;;;;;;3.00;0.90;;;;;;;12.48;100.00;100677.81;6465217;22;20020;-79
2021/09/18 02:33:31;;;;;;;0.98;0.80;;;;;;;12.49;100.00;100674.28;6465989;22;20277;-79
2021/09/18 02:36:01;;;;;;;1.33;0.70;;;;;;;12.58;100.00;100679.16;6372562;23;20094;-79
2021/09/18 02:38:31;;;;;;;4.75;0.85;;;;;;;12.54;100.00;100681.97;6466721;22;19998;-79
2021/09/18 02:41:02;;;;;;;2.08;0.75;;;;;;;12.44;100.00;100681.50;6373665;23;19997;-79
2021/09/18 02:43:32;;;;;;;2.70;0.90;;;;;;;12.52;100.00;100673.31;6466559;22;20389;-79
2021/09/18 02:46:03;;;;;;;3.95;1.00;;;;;;;12.79;100.00;100682.66;6374095;23;20072;-79
2021/09/18 02:48:33;;;;;;;1.60;0.90;;;;;;;12.87;100.00;100681.41;6372432;23;20009;-79
2021/09/18 02:51:03;;;;;;;2.90;0.80;;;;;;;12.89;100.00;100676.94;6372161;23;20033;-79
2021/09/18 02:53:33;;;;;;;4.00;0.90;;;;;;;12.88;100.00;100677.88;6372380;23;20063;-80
2021/09/18 02:56:04;;;;;;;1.60;0.80;;;;;;;12.59;100.00;100678.25;6372611;23;19997;-79
2021/09/18 02:58:34;;;;;;;2.47;1.00;;;;;;;12.64;100.00;100673.66;6372925;22;20028;-79
2021/09/18 03:01:05;;;;;;;3.25;1.10;;;;;;;12.76;100.00;100665.28;6372181;23;20002;-79
2021/09/18 03:03:35;;;;;;;4.00;1.20;;;;;;;12.80;100.00;100666.84;6464483;22;20009;-79
2021/09/18 03:06:05;;;;;;;2.10;0.95;;;;;;;12.95;100.00;100668.00;6371892;23;20013;-79
2021/09/18 03:08:36;;;;;;;2.67;1.10;;;;;;;12.96;100.00;100664.44;6463592;22;20037;-79
2021/09/18 03:11:07;;;;;;;3.72;1.40;;;;;;;12.98;100.00;100664.31;6463464;22;20005;-79
2021/09/18 03:13:37;;;;;;;1.23;0.90;;;;;;;12.93;100.00;100666.25;6463329;22;20096;-80
2021/09/18 03:16:07;;;;;;;1.60;1.05;;;;;;;12.96;100.00;100670.53;6464212;22;20048;-79
2021/09/18 03:18:38;;;;;;;3.10;1.23;;;;;;;12.97;100.00;100664.38;6463713;22;20008;-79
2021/09/18 03:21:08;;;;;;;1.92;1.17;;;;;;;12.91;100.00;100664.59;6463727;22;20326;-79
2021/09/18 03:23:38;;;;;;;3.17;1.15;;;;;;;12.83;100.00;100666.69;6371341;23;20401;-80
2021/09/18 03:26:09;;;;;;;1.67;1.00;;;;;;;13.10;100.00;100668.16;6463649;22;20032;-80
2021/09/18 03:28:39;;;;;;;2.40;1.20;;;;;;;12.98;100.00;100667.84;6464909;22;20005;-80
2021/09/18 03:31:09;;;;;;;2.58;1.15;;;;;;;12.77;100.00;100666.97;6372255;23;20009;-79
2021/09/18 03:33:40;;;;;;;3.67;1.70;;;;;;;13.08;100.00;100665.59;6370779;23;20001;-79
2021/09/18 03:36:10;;;;;;;2.33;1.42;;;;;;;13.06;100.00;100662.19;6371032;23;20002;-79
2021/09/18 03:38:41;;;;;;;4.93;1.67;;;;;;;12.83;100.00;100671.94;6463943;22;20155;-79
2021/09/18 03:41:11;;;;;;;2.47;1.30;;;;;;;12.94;100.00;100682.88;6462801;22;20201;-79
2021/09/18 03:43:41;;;;;;;4.40;1.40;;;;;;;12.95;100.00;100681.94;6371415;23;20479;-79
2021/09/18 03:46:12;;;;;;;2.42;1.45;;;;;;;12.93;100.00;100684.63;6463142;22;20472;-80
2021/09/18 03:48:42;;;;;;;3.67;1.52;;;;;;;12.93;100.00;100685.53;6371358;23;20012;-79
2021/09/18 03:51:13;;;;;;;2.33;1.30;;;;;;;12.81;100.00;100694.75;6463519;22;20016;-78
2021/09/18 03:53:43;;;;;;;2.78;1.45;;;;;;;12.93;100.00;100693.41;6370310;23;20009;-78
2021/09/18 03:56:14;;;;;;;2.25;1.27;;;;;;;12.87;100.00;100686.66;6463655;22;20345;-78
2021/09/18 03:58:44;;;;;;;2.60;1.10;;;;;;;13.03;100.00;100687.72;6370586;23;20024;-78
2021/09/18 04:01:14;;;;;;;5.05;1.48;;;;;;;13.03;100.00;100685.09;6462301;22;20009;-78
2021/09/18 04:03:44;;;;;;;2.90;1.40;;;;;;;13.01;100.00;100694.78;6370210;23;20005;-78
2021/09/18 04:06:15;;;;;;;3.70;1.00;;;;;;;13.03;100.00;100685.09;6370763;23;20493;-78
2021/09/18 04:08:45;;;;;;;2.97;1.30;;;;;;;13.11;100.00;100682.97;6462331;22;20013;-78
2021/09/18 04:11:15;;;;;;;2.88;1.30;;;;;;;13.24;100.00;100686.78;6462733;22;20538;-79
2021/09/18 04:13:47;;;;;;;2.60;1.38;;;;;;;13.21;100.00;100690.38;6369520;23;20017;-78
2021/09/18 04:16:19;;;;;;;2.97;1.25;;;;;;;13.39;100.00;100683.47;6462615;22;20054;-78
2021/09/18 04:18:50;;;;;;;3.05;1.27;;;;;;;13.33;100.00;100687.22;6370852;23;20002;-78
2021/09/18 04:21:20;;;;;;;3.80;1.42;;;;;;;13.03;100.00;100685.09;6463933;22;20059;-78
2021/09/18 04:23:50;;;;;;;2.78;1.35;;;;;;;13.07;100.00;100689.28;6370582;23;20005;-79
2021/09/18 04:26:21;;;;;;;4.57;1.48;;;;;;;12.89;100.00;100693.53;6369821;23;20034;-79
2021/09/18 04:28:51;;;;;;;3.15;1.45;;;;;;;12.89;100.00;100693.53;6463082;22;20009;-78
2021/09/18 04:31:21;;;;;;;2.53;1.48;;;;;;;12.94;100.00;100695.97;6464991;22;20002;-78
2021/09/18 04:33:52;;;;;;;3.10;1.42;;;;;;;13.01;100.00;100703.53;6371343;23;20012;-79
2021/09/18 04:36:22;;;;;;;3.33;1.48;;;;;;;12.83;100.00;100702.59;6372340;23;20329;-79
2021/09/18 04:38:53;;;;;;;2.95;1.50;;;;;;;12.81;100.00;100697.38;6464542;22;20059;-78
2021/09/18 04:41:26;;;;;;;1.98;1.27;;;;;;;12.99;100.00;100701.88;6465918;22;20005;-78
2021/09/18 04:43:56;;;;;;;3.08;1.70;;;;;;;12.87;100.00;100702.38;6464439;22;20249;-78
2021/09/18 04:46:27;;;;;;;3.53;1.50;;;;;;;13.13;100.00;100699.50;6371571;23;20033;-78
2021/09/18 04:48:57;;;;;;;2.80;1.38;;;;;;;12.97;100.00;100695.00;6465615;22;20456;-79
2021/09/18 04:51:27;;;;;;;2.88;1.30;;;;;;;13.17;100.00;100690.56;6370995;23;20037;-79
2021/09/18 04:53:58;;;;;;;3.28;1.40;;;;;;;12.95;100.00;100702.94;6371472;23;20005;-78
2021/09/18 04:56:28;;;;;;;4.93;1.50;;;;;;;12.91;100.00;100699.53;6465036;22;20010;-78
2021/09/18 04:59:00;;;;;;;3.35;1.38;;;;;;;13.05;100.00;100706.88;6371643;23;20002;-78
2021/09/18 05:01:30;;;;;;;2.33;1.42;;;;;;;12.87;100.00;100707.63;6372109;23;20066;-78
2021/09/18 05:04:00;;;;;;;3.15;1.30;;;;;;;12.83;100.00;100705.22;6371713;23;20025;-78
2021/09/18 05:06:30;;;;;;;3.80;1.80;;;;;;;12.91;100.00;100704.78;6371820;23;19998;-78
2021/09/18 05:09:01;;;;;;;3.28;1.40;;;;;;;13.09;100.00;100713.69;6465045;22;20034;-78
2021/09/18 05:11:31;;;;;;;3.63;1.50;;;;;;;13.05;100.00;100706.88;6464272;22;20006;-78
2021/09/18 05:14:02;;;;;;;2.92;1.52;;;;;;;13.18;100.00;100702.78;6371000;23;20011;-78
2021/09/18 05:16:32;;;;;;;2.55;1.50;;;;;;;13.39;100.00;100717.59;6465290;22;20442;-79
2021/09/18 05:19:03;;;;;;;2.47;1.30;;;;;;;13.39;100.00;100715.81;6465149;22;20468;-78
2021/09/18 05:21:33;;;;;;;2.25;1.33;;;;;;;13.18;100.00;100723.78;6371701;23;20068;-79
2021/09/18 05:24:04;;;;;;;3.30;1.45;;;;;;;13.03;100.00;100727.91;6371535;23;20066;-78
2021/09/18 05:26:34;;;;;;;4.18;1.40;;;;;;;13.28;100.00;100725.94;6464090;22;20457;-78
2021/09/18 05:29:04;;;;;;;3.67;1.58;;;;;;;13.20;100.00;100722.78;6371735;23;20112;-78
2021/09/18 05:31:35;;;;;;;2.58;1.27;;;;;;;13.39;100.00;100717.59;6372188;23;19997;-78
2021/09/18 05:34:05;;;;;;;4.63;1.42;;;;;;;13.41;100.00;100724.47;6371890;23;19997;-79
2021/09/18 05:36:35;;;;;;;4.00;1.60;;;;;;;13.49;100.00;100721.50;6371355;23;20008;-78
2021/09/18 05:39:06;;;;;;;2.65;1.40;;;;;;;13.13;100.00;100720.50;6370612;23;20008;-78
2021/09/18 05:41:36;;;;;;;2.33;1.30;;;;;;;13.41;100.00;100723.63;6371139;23;20039;-78
2021/09/18 05:44:07;;;;;;;3.28;1.30;;;;;;;13.41;100.00;100726.25;6370139;23;20036;-78
2021/09/18 05:46:37;;;;;;;2.35;1.50;;;;;;;13.37;100.00;100729.94;6371372;23;20009;-78
2021/09/18 05:49:08;;;;;;;2.95;1.30;;;;;;;13.19;100.00;100730.72;6371714;23;20088;-79
2021/09/18 05:51:38;;;;;;;2.63;1.20;;;;;;;13.33;100.00;100730.97;6464236;22;20065;-78
2021/09/18 05:54:08;;;;;;;3.33;1.45;;;;;;;13.47;100.00;100734.72;6370548;23;20168;-78
2021/09/18 05:56:39;;;;;;;2.53;1.42;;;;;;;13.61;100.00;100734.09;6464595;22;20013;-79
2021/09/18 05:59:09;;;;;;;2.42;1.33;;;;;;;13.60;100.00;100738.47;6371303;23;20020;-78
2021/09/18 06:01:39;;;;;;;4.05;1.40;;;;;;;13.55;100.00;100735.22;6372046;23;20535;-78
2021/09/18 06:04:10;;;;;;;4.38;1.50;;;;;;;13.75;100.00;100734.31;6370848;23;20009;-78
2021/09/18 06:06:40;;;;;;;2.40;1.33;;;;;;;13.75;100.00;100739.56;6371407;23;20079;-79
2021/09/18 06:09:11;;;;;;;2.60;1.13;;;;;;;13.89;100.00;100739.78;6371215;23;20001;-78
2021/09/18 06:11:41;;;;;;;2.38;1.30;;;;;;;13.66;100.00;100747.84;6371722;23;20002;-78
2021/09/18 06:14:11;;;;;;;2.90;1.50;;;;;;;13.71;100.00;100743.25;6370628;23;20009;-78
2021/09/18 06:16:41;;;;;;;3.53;1.45;;;;;;;13.79;100.00;100743.75;6464302;22;20036;-78
2021/09/18 06:19:12;;;;;;;2.80;1.52;;;;;;;13.72;100.00;100747.59;6371082;23;20005;-79
2021/09/18 06:21:42;;;;;;;6.47;1.63;;;;;;;13.67;100.00;100749.56;6370295;23;19997;-78
2021/09/18 06:24:14;;;;;;;2.90;1.60;;;;;;;13.55;100.00;100755.38;6462916;22;20096;-78
2021/09/18 06:26:47;;;;;;;2.92;1.60;;;;;;;13.69;100.00;100752.97;6464460;22;20245;-79
2021/09/18 06:29:17;;;;;;;3.70;1.80;;;;;;;13.66;100.00;100750.47;6370995;23;20006;-78
2021/09/18 06:31:48;;;;;;;5.57;1.88;;;;;;;13.62;100.00;100747.16;6370315;23;20472;-79
2021/09/18 06:34:18;;;;;;;4.20;1.63;;;;;;;13.63;100.00;100754.13;6463411;22;20017;-79
2021/09/18 06:36:49;;;;;;;3.67;2.22;;;;;;;13.65;100.00;100751.41;6371517;23;20319;-78
2021/09/18 06:39:19;;;;;;;3.72;2.03;;;;;;;13.52;100.00;100755.50;6370702;23;20054;-78
2021/09/18 06:41:49;;;;;;;2.97;1.77;;;;;;;13.36;100.00;100759.72;6370532;23;19994;-78
2021/09/18 06:44:20;;;;;;;5.00;2.20;;;;;;;13.44;100.00;100758.44;6370531;23;19997;-79
2021/09/18 06:46:50;;;;;;;3.38;1.85;;;;;;;13.46;100.00;100759.25;6371471;23;20005;-78
2021/09/18 06:49:20;;;;;;;4.70;2.22;;;;;;;13.70;100.00;100763.41;6371054;23;20469;-79
2021/09/18 06:51:50;;;;;;;5.20;1.92;;;;;;;13.59;100.00;100760.41;6463322;22;20075;-79
2021/09/18 06:54:21;;;;;;;3.65;2.22;;;;;;;13.73;100.00;100765.06;6368781;23;20029;-79
2021/09/18 06:56:51;;;;;;;3.47;2.37;;;;;;;13.81;100.00;100763.78;6371006;23;20388;-79
2021/09/18 06:59:21;;;;;;;6.20;2.60;;;;;;;13.59;100.00;100767.44;6371505;23;20279;-79
2021/09/18 07:01:52;;;;;;;5.90;2.42;;;;;;;13.63;100.00;100771.63;6370986;23;20229;-79
2021/09/18 07:04:22;;;;;;;5.18;2.90;;;;;;;13.57;100.00;100775.38;6463762;22;20319;-78
2021/09/18 07:06:53;;;;;;;5.25;2.80;;;;;;;13.52;100.00;100777.38;6463139;22;20009;-78
2021/09/18 07:09:23;;;;;;;5.03;3.22;;;;;;;13.46;100.00;100782.03;6369837;23;20005;-78
2021/09/18 07:11:53;;;;;;;4.30;2.67;;;;;;;13.52;100.00;100772.09;6370388;23;20413;-78
2021/09/18 07:14:24;;;;;;;6.38;2.97;;;;;;;13.75;100.00;100773.72;6462360;22;20237;-78
2021/09/18 07:16:54;;;;;;;5.90;2.90;;;;;;;13.65;100.00;100780.28;6370618;23;20044;-79
2021/09/18 07:19:24;;;;;;;4.22;2.78;;;;;;;13.88;100.00;100774.88;6370903;23;20223;-79
2021/09/18 07:21:55;;;;;;;4.80;3.10;;;;;;;13.98;100.00;100784.03;6371450;23;20023;-79
2021/09/18 07:24:25;;;;;;;8.02;2.90;;;;;;;13.87;100.00;100778.38;6463511;22;20396;-78
2021/09/18 07:26:55;;;;;;;4.93;3.20;;;;;;;13.94;100.00;100779.84;6371450;23;20005;-78
2021/09/18 07:29:26;;;;;;;7.18;3.63;;;;;;;13.94;100.00;100777.22;6370954;23;20012;-78
2021/09/18 07:31:56;;;;;;;5.45;3.20;;;;;;;13.74;100.00;100782.53;6370370;23;20010;-78
2021/09/18 07:34:26;;;;;;;6.57;3.72;;;;;;;13.86;100.00;100782.81;6370269;23;20314;-78
2021/09/18 07:36:57;;;;;;;8.35;3.25;;;;;;;13.99;100.00;100781.34;6370432;23;20001;-79
2021/09/18 07:39:28;;;;;;;6.22;3.15;;;;;;;13.91;100.00;100779.97;6370628;23;20342;-79
2021/09/18 07:41:58;;;;;;;5.85;3.30;;;;;;;14.11;100.00;100788.63;6463661;22;20437;-78
2021/09/18 07:44:28;;;;;;;5.97;3.40;;;;;;;14.23;100.00;100792.53;6370572;23;20020;-78
2021/09/18 07:46:59;;;;;;;7.40;3.50;;;;;;;14.12;100.00;100794.75;6463112;22;20001;-79
2021/09/18 07:49:29;;;;;;;5.35;3.25;;;;;;;14.24;100.00;100788.97;6370971;23;20012;-78
2021/09/18 07:51:59;;;;;;;6.85;3.47;;;;;;;14.48;100.00;100790.41;6461788;22;20006;-78
2021/09/18 07:54:31;;;;;;;7.18;3.30;;;;;;;14.57;100.00;100797.88;6370166;23;20429;-78
2021/09/18 07:57:01;;;;;;;6.18;3.33;;;;;;;14.36;100.00;100789.22;6462406;22;20009;-78
2021/09/18 07:59:32;;;;;;;6.25;3.08;;;;;;;14.58;100.00;100799.59;6458530;22;20002;-79
2021/09/18 08:02:02;;;;;;;7.32;3.90;;;;;;;14.50;100.00;100791.19;6460355;22;20504;-78
2021/09/18 08:04:33;;;;;;;6.38;3.38;;;;;;;14.50;100.00;100796.44;6460503;22;20004;-78
2021/09/18 08:07:03;;;;;;;5.95;3.50;;;;;;;14.34;100.00;100801.59;6370456;23;20005;-78
2021/09/18 08:09:34;;;;;;;5.05;3.35;;;;;;;14.33;100.00;100802.53;6463158;22;20324;-78
2021/09/18 08:12:04;;;;;;;7.82;3.63;;;;;;;14.42;100.00;100812.59;6370752;23;20460;-79
2021/09/18 08:14:34;;;;;;;7.07;3.78;;;;;;;14.50;100.00;100807.84;6372021;23;20058;-78
2021/09/18 08:17:05;;;;;;;5.90;3.78;;;;;;;14.87;100.00;100815.66;6371115;23;20008;-79
2021/09/18 08:19:35;;;;;;;7.93;3.92;;;;;;;14.69;100.00;100818.31;6463842;22;20028;-79
2021/09/18 08:22:05;;;;;;;5.88;3.40;;;;;;;14.80;100.00;100818.66;6463506;22;20345;-79
2021/09/18 08:24:36;;;;;;;5.55;3.55;;;;;;;15.05;100.00;100815.56;6371815;23;20005;-79
2021/09/18 08:27:06;;;;;;;7.43;3.85;;;;;;;14.93;100.00;100810.06;6371170;23;20009;-80
2021/09/18 08:29:36;;;;;;;6.18;4.10;;;;;;;15.07;100.00;100816.38;6463829;22;20020;-79
2021/09/18 08:32:07;;;;;;;6.38;3.72;;;;;;;15.21;100.00;100813.88;6371052;23;19997;-79
2021/09/18 08:34:37;;;;;;;6.50;3.97;;;;;;;15.35;100.00;100813.22;6462963;22;20090;-79
2021/09/18 08:37:07;;;;;;;6.15;4.20;;;;;;;15.29;100.00;100816.16;6371090;23;20009;-79
2021/09/18 08:39:38;;;;;;;5.90;3.60;;;;;;;15.36;100.00;100823.66;6464520;22;20002;-79
2021/09/18 08:42:13;;;;;;;5.25;3.40;;;;;;;15.41;100.00;100819.03;6463222;22;20404;-79
2021/09/18 08:44:43;;;;;;;5.95;3.90;;;;;;;15.51;100.00;100828.16;6370517;23;20059;-79
2021/09/18 08:47:15;;;;;;;5.75;3.90;;;;;;;15.43;100.00;100825.06;6465057;22;20029;-79
2021/09/18 08:49:46;;;;;;;6.97;4.20;;;;;;;15.59;100.00;100825.13;6371786;23;20012;-79
2021/09/18 08:52:17;;;;;;;6.75;4.05;;;;;;;15.77;100.00;100818.88;6464296;22;20014;-79
2021/09/18 08:54:47;;;;;;;6.20;3.63;;;;;;;15.73;100.00;100812.91;6370989;23;20315;-79
2021/09/18 08:57:17;;;;;;;20.85;7.00;;;;;;;15.77;100.00;100827.66;6370303;23;19998;-79
2021/09/18 08:59:48;;;;;;;9.23;4.15;;;;;;;15.54;100.00;100830.63;6371254;23;20001;-79
2021/09/18 09:02:21;;;;;;;6.13;3.80;;;;;;;15.67;100.00;100831.69;6370604;23;20005;-79
2021/09/18 09:05:01;;;;;;;6.55;3.88;;;;;;;15.76;100.00;100833.00;6368395;23;20355;-79
2021/09/18 09:07:31;;;;;;;4.60;3.38;;;;;;;15.84;100.00;100833.47;6366368;22;20010;-79
2021/09/18 09:10:05;;;;;;;7.70;3.40;;;;;;;15.80;100.00;100832.78;6464829;22;20002;-79
2021/09/18 09:12:38;;;;;;;7.18;4.13;;;;;;;15.55;100.00;100840.22;6465795;22;20009;-79
2021/09/18 09:15:22;;;;;;;5.45;3.85;;;;;;;15.60;100.00;100838.22;6461120;22;20002;-79
2021/09/18 09:17:53;;;;;;;6.68;4.30;;;;;;;15.65;100.00;100836.19;6466001;22;20453;-79
2021/09/18 09:20:24;;;;;;;6.07;3.58;;;;;;;15.93;100.00;100836.47;6463628;22;20009;-79
2021/09/18 09:22:55;;;;;;;7.40;4.30;;;;;;;15.96;100.00;100830.16;6367726;22;20006;-79
2021/09/18 09:25:31;;;;;;;5.32;3.90;;;;;;;15.71;100.00;100835.88;6367649;23;20039;-79
2021/09/18 09:28:22;;;;;;;7.00;4.28;;;;;;;16.30;100.00;100833.53;6368234;22;20095;-80
2021/09/18 09:30:53;;;;;;;8.32;4.13;;;;;;;16.14;100.00;100831.81;6463154;22;20014;-81
2021/09/18 09:33:24;;;;;;;5.07;3.63;;;;;;;16.04;100.00;100839.38;6460718;22;20051;-80
2021/09/18 09:35:54;;;;;;;5.50;3.67;;;;;;;16.11;100.00;100839.88;6370958;23;20725;-79
2021/09/18 09:38:32;;;;;;;6.15;4.03;;;;;;;16.15;100.00;100837.00;6367250;22;20043;-80
2021/09/18 09:41:02;;;;;;;5.95;3.90;;;;;;;15.91;100.00;100851.47;6370730;23;19998;-80
2021/09/18 09:43:43;;;;;;;6.30;3.83;;;;;;;15.83;100.00;100845.78;6370508;22;20243;-79
2021/09/18 09:46:13;;;;;;;5.35;3.53;;;;;;;16.00;100.00;100843.09;6372155;23;19997;-80
2021/09/18 09:48:44;;;;;;;4.88;3.47;;;;;;;16.15;100.00;100846.69;6368823;22;20066;-81
2021/09/18 09:51:25;;;;;;;5.88;3.83;;;;;;;16.09;100.00;100842.63;6468669;22;20005;-79
2021/09/18 09:54:17;;;;;;;5.57;3.92;;;;;;;16.09;100.00;100836.47;6367136;22;20010;-79
2021/09/18 09:57:03;;;;;;;5.30;3.58;;;;;;;15.91;100.00;100843.56;6369594;22;20080;-79
2021/09/18 09:59:34;;;;;;;5.03;3.42;;;;;;;16.29;100.00;100849.44;6461988;22;20164;-79
2021/09/18 10:02:07;;;;;;;6.22;3.80;;;;;;;16.71;100.00;100844.47;6370109;23;20377;-79
2021/09/18 10:04:38;;;;;;;5.60;3.50;;;;;;;16.81;100.00;100851.78;6364281;22;20006;-79
2021/09/18 10:07:11;;;;;;;3.95;2.90;;;;;;;16.81;100.00;100846.50;6462439;22;20001;-79
2021/09/18 10:09:42;;;;;;;4.38;3.08;;;;;;;16.90;100.00;100851.25;6461298;22;20183;-79
2021/09/18 10:12:13;;;;;;;5.50;3.28;;;;;;;16.79;100.00;100861.59;6463717;22;20472;-79
2021/09/18 10:14:51;;;;;;;4.90;3.42;;;;;;;16.89;100.00;100854.84;6458960;22;20009;-79
2021/09/18 10:17:23;;;;;;;5.72;3.42;;;;;;;16.90;100.00;100859.16;6464370;22;20002;-79
2021/09/18 10:20:02;;;;;;;5.55;3.42;;;;;;;16.78;100.00;100860.72;6368470;22;20008;-79
2021/09/18 10:25:32;;;;;;;6.22;3.13;;;;;;;16.71;100.00;100860.31;6363393;22;20021;-79
2021/09/18 10:28:15;;;;;;;7.28;3.15;;;;;;;16.58;100.00;100861.94;6463037;22;20012;-79
2021/09/18 10:33:40;;;;;;;5.07;3.35;;;;;;;16.55;100.00;100855.03;6358172;23;20075;-79
2021/09/18 10:36:19;;;;;;;9.02;3.92;;;;;;;16.61;100.00;100854.69;6334895;23;20005;-79
2021/09/18 10:39:02;;;;;;;6.68;3.50;;;;;;;16.58;100.00;100854.00;6331947;23;20084;-79
2021/09/18 10:41:40;;;;;;;6.55;3.45;;;;;;;16.58;100.00;100854.84;6359534;23;20033;-79
2021/09/18 10:44:13;;;;;;;4.72;2.95;;;;;;;16.50;100.00;100858.84;6371349;23;20318;-79
2021/09/18 10:46:45;;;;;;;5.70;3.20;;;;;;;16.45;100.00;100856.47;6336344;23;20009;-79
2021/09/18 10:49:34;;;;;;;5.05;3.20;;;;;;;16.43;100.00;100861.00;6359462;23;20041;-78
2021/09/18 10:52:20;;;;;;;5.05;3.00;;;;;;;16.49;100.00;100847.47;6335214;23;20009;-79
2021/09/18 10:55:05;;;;;;;;;;;;;;;16.57;100.00;100850.50;6371566;23;20509;-79
2021/09/18 10:57:35;;;;;;;6.97;2.75;;;;;;;16.62;100.00;100851.13;6336389;23;19952;-80
2021/09/18 11:00:39;;;;;;;4.07;2.78;;;;;;;16.64;100.00;100857.16;6333892;23;20029;-79
2021/09/18 11:03:10;;;;;;;5.93;3.00;;;;;;;16.73;100.00;100859.28;6336057;23;20092;-80
2021/09/18 11:05:44;;;;;;;4.13;2.80;;;;;;;16.58;100.00;100854.84;6332566;22;20013;-80
2021/09/18 11:08:14;;;;;;;3.67;2.85;;;;;;;16.64;100.00;100856.31;6361712;23;20029;-79
2021/09/18 11:10:44;;;;;;;4.78;3.00;;;;;;;16.79;100.00;100851.88;6335433;22;20004;-80
2021/09/18 11:13:15;;;;;;;7.90;2.90;;;;;;;16.75;100.00;100854.75;6369474;22;20010;-79
2021/09/18 11:15:48;;;;;;;4.22;2.80;;;;;;;16.90;100.00;100851.25;6356082;22;20525;-80
2021/09/18 11:18:34;;;;;;;4.35;2.72;;;;;;;17.00;100.00;100855.91;6334173;23;20020;-79
2021/09/18 11:21:10;;;;;;;4.10;2.80;;;;;;;17.07;100.00;100851.13;6334349;22;20005;-80
2021/09/18 11:23:44;;;;;;;5.50;2.45;;;;;;;17.00;100.00;100855.09;6356677;23;20013;-79
2021/09/18 11:27:06;;;;;;;4.95;3.00;;;;;;;17.05;100.00;100863.59;6377168;23;20011;-80
2021/09/18 11:30:14;;;;;;;4.97;2.95;;;;;;;17.07;100.00;100859.06;6367532;23;20564;-79
2021/09/18 11:32:53;;;;;;;4.85;2.55;;;;;;;16.98;100.00;100852.50;6370078;23;20009;-79
2021/09/18 11:35:25;;;;;;;3.83;2.22;;;;;;;17.18;100.00;100861.94;6318947;23;20006;-79
2021/09/18 11:38:00;;;;;;;4.72;2.60;;;;;;;17.46;100.00;100856.78;6333533;23;20010;-79
2021/09/18 11:40:33;;;;;;;3.58;2.50;;;;;;;17.53;99.85;100856.34;6332825;23;20005;-80
2021/09/18 11:43:04;;;;;;;3.25;2.22;;;;;;;17.68;100.00;100857.22;6364171;22;20426;-80
2021/09/18 11:45:39;;;;;;;4.28;2.50;;;;;;;17.83;99.37;100861.56;6333432;23;20009;-80